createdAt,value
2019-05-03T00:03:16.660Z,7.40
2019-05-03T00:08:21.729Z,7.30
2019-05-03T00:13:26.115Z,7.10
2019-05-03T00:18:30.169Z,6.90
2019-05-03T00:23:33.933Z,6.70
2019-05-03T00:28:40.001Z,6.50
2019-05-03T00:33:45.918Z,6.40
2019-05-03T00:38:52.450Z,6.30
2019-05-03T00:43:56.294Z,6.20
2019-05-03T00:49:00.018Z,5.90
2019-05-03T00:54:03.795Z,5.80
2019-05-03T00:59:07.830Z,5.80
2019-05-03T01:04:11.906Z,5.60
2019-05-03T01:09:19.753Z,5.60
2019-05-03T01:14:23.509Z,5.50
2019-05-03T01:19:27.673Z,5.30
2019-05-03T01:24:32.308Z,5.40
2019-05-03T01:29:36.610Z,5.20
2019-05-03T01:34:41.652Z,5.10
2019-05-03T01:39:45.566Z,4.90
2019-05-03T01:44:49.298Z,4.80
2019-05-03T01:50:00.086Z,4.80
2019-05-03T01:55:04.260Z,4.70
2019-05-03T02:00:12.497Z,4.60
2019-05-03T02:05:42.887Z,4.40
2019-05-03T02:10:46.904Z,4.40
2019-05-03T02:15:52.696Z,4.40
2019-05-03T02:20:56.461Z,4.30
2019-05-03T02:26:00.138Z,4.30
2019-05-03T02:31:03.946Z,4.20
2019-05-03T02:36:07.708Z,4.10
2019-05-03T02:41:13.493Z,4.10
2019-05-03T02:46:36.321Z,4.10
2019-05-03T02:51:41.138Z,4.10
2019-05-03T02:56:46.014Z,4.10
2019-05-03T03:01:50.389Z,4.10
2019-05-03T03:06:56.029Z,4.20
2019-05-03T03:12:01.752Z,4.10
2019-05-03T03:17:06.965Z,4.20
2019-05-03T03:22:11.463Z,4.20
2019-05-03T03:27:19.427Z,4.20
2019-05-03T03:32:30.371Z,4.20
2019-05-03T03:37:35.225Z,4.20
2019-05-03T03:42:40.622Z,4.20
2019-05-03T03:47:46.602Z,4.10
2019-05-03T03:52:52.164Z,4.20
2019-05-03T03:57:56.011Z,4.20
2019-05-03T04:03:00.731Z,4.20
2019-05-03T04:08:05.624Z,4.20
2019-05-03T04:13:11.706Z,4.20
2019-05-03T04:18:41.086Z,4.20
2019-05-03T04:23:45.848Z,4.20
2019-05-03T04:28:49.829Z,4.30
2019-05-03T04:33:56.106Z,4.50
2019-05-03T04:38:59.381Z,5.50
2019-05-03T04:44:06.057Z,6.10
2019-05-03T04:49:08.796Z,6.70
2019-05-03T04:54:25.254Z,7.40
2019-05-03T04:59:29.141Z,7.90
2019-05-03T05:04:35.498Z,8.30
2019-05-03T05:09:39.028Z,8.10
2019-05-03T05:14:45.493Z,7.90
2019-05-03T05:19:58.542Z,7.90
2019-05-03T05:25:04.497Z,8.00
2019-05-03T05:30:10.889Z,7.50
2019-05-03T05:35:14.668Z,6.80
2019-05-03T05:40:21.803Z,7.20
2019-05-03T05:45:25.676Z,6.90
2019-05-03T05:50:37.950Z,7.00
2019-05-03T05:55:54.970Z,7.30
2019-05-03T06:01:02.633Z,6.70
2019-05-03T06:06:08.977Z,6.80
2019-05-03T06:11:18.673Z,7.30
2019-05-03T06:16:28.267Z,7.20
2019-05-03T06:21:51.195Z,7.30
2019-05-03T06:27:00.560Z,7.60
2019-05-03T06:32:15.366Z,7.80
2019-05-03T06:37:21.900Z,8.90
2019-05-03T06:42:25.665Z,8.60
2019-05-03T06:47:29.758Z,8.10
2019-05-03T06:52:35.136Z,8.70
2019-05-03T06:57:45.652Z,8.70
2019-05-03T07:02:57.899Z,8.20
2019-05-03T07:08:21.073Z,7.90
2019-05-03T07:13:25.459Z,7.60
2019-05-03T07:18:29.258Z,8.40
2019-05-03T07:23:34.924Z,8.60
2019-05-03T07:28:46.984Z,8.80
2019-05-03T07:33:44.639Z,8.00
2019-05-03T07:38:48.782Z,8.80
2019-05-03T07:43:52.515Z,8.30
2019-05-03T07:48:56.333Z,10.10
2019-05-03T07:54:00.047Z,9.40
2019-05-03T07:59:06.850Z,9.30
2019-05-03T08:04:10.637Z,10.40
2019-05-03T08:09:15.351Z,10.70
2019-05-03T08:14:19.349Z,9.30
2019-05-03T08:19:24.464Z,9.60
2019-05-03T08:24:28.565Z,10.10
2019-05-03T08:29:32.295Z,10.30
2019-05-03T08:34:58.034Z,10.00
2019-05-03T08:40:02.010Z,10.10
2019-05-03T08:45:08.016Z,9.70
2019-05-03T08:50:15.103Z,10.20
2019-05-03T08:55:17.428Z,11.50
2019-05-03T09:00:24.915Z,11.30
2019-05-03T09:05:28.830Z,10.50
2019-05-03T09:10:41.553Z,9.60
2019-05-03T09:15:46.005Z,8.70
2019-05-03T09:20:50.149Z,10.60
2019-05-03T09:25:54.782Z,12.30
2019-05-03T09:30:58.577Z,9.90
2019-05-03T09:36:02.796Z,9.30
2019-05-03T09:41:06.673Z,11.20
2019-05-03T09:46:10.418Z,10.50
2019-05-03T09:51:14.888Z,9.70
2019-05-03T09:56:21.299Z,10.60
2019-05-03T10:01:25.595Z,11.50
2019-05-03T10:06:29.377Z,11.50
2019-05-03T10:11:35.142Z,11.50
2019-05-03T10:16:44.900Z,10.70
2019-05-03T10:21:49.003Z,11.70
2019-05-03T10:26:52.690Z,9.70
2019-05-03T10:32:04.170Z,9.70
2019-05-03T10:37:09.844Z,11.00
2019-05-03T10:42:13.717Z,11.30
2019-05-03T10:47:17.841Z,11.80
2019-05-03T10:52:25.751Z,12.00
2019-05-03T10:57:31.106Z,12.00
2019-05-03T11:03:06.386Z,10.20
2019-05-03T11:08:10.331Z,10.20
2019-05-03T11:18:20.165Z,10.90
2019-05-03T11:28:29.182Z,10.20
2019-05-03T11:33:41.200Z,10.70
2019-05-03T11:38:46.910Z,10.70
2019-05-03T11:43:51.007Z,10.80
2019-05-03T11:48:55.005Z,10.80
2019-05-03T11:53:58.752Z,12.10
2019-05-03T11:59:02.795Z,12.70
2019-05-03T12:04:06.738Z,12.80
2019-05-03T12:09:10.542Z,12.30
2019-05-03T12:14:15.514Z,11.30
2019-05-03T12:24:26.585Z,11.00
2019-05-03T12:29:29.931Z,12.00
2019-05-03T12:34:35.133Z,12.50
2019-05-03T12:39:39.526Z,12.80
2019-05-03T12:44:43.425Z,12.70
2019-05-03T12:49:47.207Z,12.60
2019-05-03T12:54:51.570Z,13.40
2019-05-03T13:00:20.677Z,13.80
2019-05-03T13:05:24.882Z,13.40
2019-05-03T13:10:28.799Z,13.10
2019-05-03T13:15:35.222Z,12.30
2019-05-03T13:20:39.016Z,12.00
2019-05-03T13:25:44.706Z,11.30
2019-05-03T13:30:48.368Z,11.20
2019-05-03T13:35:52.104Z,11.20
2019-05-03T13:40:56.557Z,11.40
2019-05-03T13:46:00.374Z,11.80
2019-05-03T13:51:05.250Z,12.40
2019-05-03T13:56:09.336Z,12.60
2019-05-03T14:01:14.719Z,12.70
2019-05-03T14:06:18.679Z,13.20
2019-05-03T14:11:22.646Z,12.40
2019-05-03T14:16:26.593Z,11.40
2019-05-03T14:21:41.309Z,10.90
2019-05-03T14:26:45.038Z,10.50
2019-05-03T14:31:48.790Z,10.00
2019-05-03T14:36:52.647Z,9.60
2019-05-03T14:41:56.546Z,9.10
2019-05-03T14:47:00.455Z,8.80
2019-05-03T14:52:05.542Z,8.50
2019-05-03T14:57:20.266Z,8.00
2019-05-03T15:02:47.658Z,7.80
2019-05-03T15:07:47.255Z,7.50
2019-05-03T15:12:51.002Z,7.80
2019-05-03T15:17:55.103Z,8.30
2019-05-03T15:22:58.974Z,8.70
2019-05-03T15:28:04.809Z,8.90
2019-05-03T15:33:08.446Z,8.70
2019-05-03T15:38:14.190Z,8.40
2019-05-03T15:43:28.459Z,8.10
2019-05-03T15:48:35.179Z,8.10
2019-05-03T15:53:39.571Z,8.10
2019-05-03T15:58:46.663Z,8.10
2019-05-03T16:03:49.373Z,7.70
2019-05-03T16:08:55.093Z,7.40
2019-05-03T16:13:58.638Z,7.60
2019-05-03T16:19:02.497Z,7.50
2019-05-03T16:24:06.455Z,7.20
2019-05-03T16:29:12.831Z,7.30
2019-05-03T16:34:16.654Z,7.30
2019-05-03T16:39:20.506Z,7.20
2019-05-03T16:44:25.050Z,6.90
2019-05-03T16:49:29.201Z,6.60
2019-05-03T16:54:34.917Z,6.60
2019-05-03T16:59:39.125Z,6.80
2019-05-03T17:04:48.246Z,7.10
2019-05-03T17:10:15.650Z,7.30
2019-05-03T17:15:19.749Z,7.40
2019-05-03T17:20:34.831Z,7.50
2019-05-03T17:25:39.395Z,7.50
2019-05-03T17:30:44.558Z,7.60
2019-05-03T17:35:48.474Z,7.50
2019-05-03T17:41:15.156Z,7.50
2019-05-03T17:46:19.413Z,7.40
2019-05-03T17:51:45.560Z,7.40
2019-05-03T17:57:07.065Z,7.30
2019-05-03T18:02:26.299Z,7.40
2019-05-03T18:07:49.142Z,7.40
2019-05-03T18:12:54.555Z,7.40
2019-05-03T18:17:58.679Z,7.40
2019-05-03T18:23:02.501Z,7.30
2019-05-03T18:28:06.381Z,7.30
2019-05-03T18:33:10.225Z,7.20
2019-05-03T18:38:14.794Z,7.10
2019-05-03T18:43:34.491Z,7.10
2019-05-03T18:48:38.023Z,7.00
2019-05-03T18:53:42.014Z,7.10
2019-05-03T18:58:46.094Z,7.10
2019-05-03T19:03:55.373Z,7.10
2019-05-03T19:09:19.955Z,7.10
2019-05-03T19:14:25.457Z,7.10
2019-05-03T19:19:35.262Z,7.10
2019-05-03T19:24:39.390Z,7.00
2019-05-03T19:29:44.786Z,6.90
2019-05-03T19:34:51.478Z,6.80
2019-05-03T19:39:55.234Z,6.80
2019-05-03T19:45:00.201Z,6.80
2019-05-03T19:50:05.101Z,6.80
2019-05-03T19:55:09.478Z,6.80
2019-05-03T20:00:15.109Z,6.80
2019-05-03T20:05:51.325Z,6.80
2019-05-03T20:11:14.863Z,6.80
2019-05-03T20:16:19.181Z,6.80
2019-05-03T20:21:25.255Z,6.80
2019-05-03T20:26:29.285Z,6.70
2019-05-03T20:31:33.018Z,6.70
2019-05-03T20:36:37.199Z,6.70
2019-05-03T20:41:40.994Z,6.60
2019-05-03T20:46:55.033Z,6.60
2019-05-03T20:51:59.394Z,6.50
2019-05-03T20:57:05.277Z,6.50
2019-05-03T21:02:09.397Z,6.40
2019-05-03T21:07:15.175Z,6.30
2019-05-03T21:12:19.021Z,6.20
2019-05-03T21:18:00.081Z,6.20
2019-05-03T21:23:05.575Z,6.00
2019-05-03T21:28:09.778Z,6.00
2019-05-03T21:33:15.751Z,5.90
2019-05-03T21:38:20.217Z,5.90
2019-05-03T21:43:25.693Z,5.80
2019-05-03T21:48:49.057Z,5.70
2019-05-03T21:53:52.841Z,5.60
2019-05-03T21:58:56.523Z,5.60
2019-05-03T22:04:01.086Z,5.60
2019-05-03T22:09:06.183Z,5.60
2019-05-03T22:14:15.426Z,5.50
2019-05-03T22:19:19.628Z,5.40
2019-05-03T22:24:42.127Z,5.30
2019-05-03T22:29:46.251Z,5.20
2019-05-03T22:34:50.018Z,5.10
2019-05-03T22:39:55.030Z,5.00
2019-05-03T22:44:59.114Z,4.90
2019-05-03T22:50:05.274Z,5.00
2019-05-03T22:55:09.053Z,5.20
2019-05-03T23:00:14.622Z,5.20
2019-05-03T23:05:18.783Z,5.10
2019-05-03T23:10:22.705Z,4.90
2019-05-03T23:15:26.374Z,4.70
2019-05-03T23:20:49.165Z,4.30
2019-05-03T23:25:52.858Z,4.20
2019-05-03T23:30:56.901Z,4.30
2019-05-03T23:36:00.674Z,4.20
2019-05-03T23:41:04.902Z,4.10
2019-05-03T23:46:09.409Z,4.10
2019-05-03T23:51:32.609Z,3.90
2019-05-03T23:56:36.630Z,3.70
